FredonyerEastRWIS Atmospheric Data: 08/13/2017 Summary  Detailed Graphs  Station List

  Temperature     Wind Precipitation Visibility
Timestamp Air Wet
Bulb
Dew-
point
24-hr
Max
24-hr
Min
Relative
Humidity
Atmospheric
Pressure
Avg
Speed
Avg
Dir
Spot
Speed
Spot
Dir
Max
Speed
Max
Dir
  Rate Situation Start End 1 hr 3 hr 6 hr 12 hr 24 hr   Situation
Date Time °F °F °F °F °F % in Hg mph ° mph ° mph ° Y/N in/hr text Date Time Date Time in in in in in mi text
08/13/2017 12:08 AM 55.76 45.32 25.16 84.20 51.26 30.0 Not Reported 0.22 N 0.00 N 1.79 N Yes x Unknown 08/13/2017 12:08 AM   x x x x x Not Reported Not Reported
08/13/2017 12:24 AM 55.22 44.78 25.34 84.20 51.26 31.0 Not Reported 0.45 NW 1.79 NW 2.01 NW Yes x Unknown 08/13/2017 12:23 AM   x x x x x Not Reported Not Reported
08/13/2017 12:38 AM 55.04 44.78 25.70 84.20 51.26 31.0 Not Reported 0.00 W 0.00 W 1.12 W No x No Precipitation 08/13/2017 12:33 AM 08/13/2017 12:38 AM x x x x x Not Reported Not Reported
08/13/2017 12:53 AM 55.40 44.96 25.88 84.20 51.26 31.0 Not Reported 1.12 NE 1.79 E 2.24 E Yes x Unknown 08/13/2017 12:43 AM   x x x x x Not Reported Not Reported
08/13/2017 01:09 AM 55.04 44.78 25.70 84.20 51.26 31.0 Not Reported 0.22 NW 0.67 N 2.01 NW Yes x Unknown 08/13/2017 12:58 AM   x x x x x Not Reported Not Reported
08/13/2017 01:23 AM 54.68 44.60 25.52 84.20 51.26 31.0 Not Reported 0.22 N 0.00 N 1.12 NW No x No Precipitation 08/13/2017 01:14 AM 08/13/2017 01:19 AM x x x x x Not Reported Not Reported
08/13/2017 01:39 AM 54.32 44.24 25.16 84.20 51.26 32.0 Not Reported 0.89 NW 0.00 NW 1.57 NW Yes x Unknown 08/13/2017 01:38 AM   x x x x x Not Reported Not Reported
08/13/2017 01:54 AM 53.60 43.70 24.80 84.20 51.26 32.0 Not Reported 0.45 NW 0.00 NW 1.34 NW Yes x Unknown 08/13/2017 01:53 AM   x x x x x Not Reported Not Reported
08/13/2017 02:12 AM 53.24 43.52 24.62 84.20 51.26 32.0 Not Reported 1.34 NW 0.22 W 2.01 NW Yes x Unknown 08/13/2017 02:10 AM   x x x x x Not Reported Not Reported
08/13/2017 02:24 AM 52.88 43.16 24.62 84.20 51.26 33.0 Not Reported 0.00 NW 0.67 NW 2.01 NW Yes x Unknown 08/13/2017 02:23 AM   x x x x x Not Reported Not Reported
08/13/2017 02:39 AM 52.16 42.80 24.26 84.20 51.26 33.0 Not Reported 0.00 NW 0.00 NW 1.12 NW No x No Precipitation 08/13/2017 02:37 AM 08/13/2017 02:38 AM x x x x x Not Reported Not Reported
08/13/2017 02:53 AM 51.80 42.62 24.08 84.20 51.26 33.0 Not Reported 0.00 NW 0.00 N 1.34 N Yes x Unknown 08/13/2017 02:47 AM   x x x x x Not Reported Not Reported
08/13/2017 03:09 AM 51.26 42.08 24.26 84.20 51.26 34.0 Not Reported 0.45 N 0.00 N 1.57 NW No x No Precipitation 08/13/2017 03:02 AM 08/13/2017 03:04 AM x x x x x Not Reported Not Reported
08/13/2017 03:23 AM 50.72 41.90 24.08 84.20 50.72 34.0 Not Reported 0.00 N 0.00 NW 0.00 x No x No Precipitation 08/13/2017 03:18 AM 08/13/2017 03:20 AM x x x x x Not Reported Not Reported
08/13/2017 03:39 AM 50.36 41.54 24.08 84.20 50.36 35.0 Not Reported 0.22 NW 0.00 NW 1.12 NW Yes x Unknown 08/13/2017 03:38 AM   x x x x x Not Reported Not Reported
08/13/2017 03:53 AM 50.00 41.36 24.26 84.20 50.00 36.0 Not Reported 0.00 W 0.00 W 1.34 NW Yes x Unknown 08/13/2017 03:52 AM   x x x x x Not Reported Not Reported
08/13/2017 04:08 AM 49.82 41.18 24.44 84.20 49.82 36.0 Not Reported 0.22 N 1.12 N 1.12 NW Yes x Unknown 08/13/2017 04:08 AM   x x x x x Not Reported Not Reported
08/13/2017 04:24 AM 49.82 41.18 24.26 84.20 49.82 36.0 Not Reported 0.00 N 0.00 N 0.00 x Yes x Unknown 08/13/2017 04:23 AM   x x x x x Not Reported Not Reported
08/13/2017 04:38 AM 49.46 40.82 24.08 84.20 49.28 36.0 Not Reported 0.00 N 0.00 N 0.00 x Yes x Unknown 08/13/2017 04:38 AM   x x x x x Not Reported Not Reported
08/13/2017 04:54 AM 49.10 40.64 24.44 84.20 49.10 37.0 Not Reported 0.00 N 0.00 N 0.00 x No x No Precipitation 08/13/2017 04:44 AM 08/13/2017 04:45 AM x x x x x Not Reported Not Reported
08/13/2017 05:10 AM 48.92 40.64 24.26 84.20 48.92 37.0 Not Reported 0.22 N 0.00 N 1.12 NW No x No Precipitation 08/13/2017 05:07 AM 08/13/2017 05:09 AM x x x x x Not Reported Not Reported
08/13/2017 05:23 AM 48.92 40.64 24.62 84.20 48.74 38.0 Not Reported 0.67 NW 1.12 W 1.34 W Yes x Unknown 08/13/2017 05:23 AM   x x x x x Not Reported Not Reported
08/13/2017 05:38 AM 48.92 40.64 24.80 84.20 48.74 38.0 Not Reported 0.00 N 0.00 N 1.79 NW Yes x Unknown 08/13/2017 05:33 AM   x x x x x Not Reported Not Reported
08/13/2017 05:54 AM 48.92 40.64 24.62 84.20 48.74 38.0 Not Reported 0.67 NW 0.22 NW 1.34 NW Yes x Unknown 08/13/2017 05:52 AM   x x x x x Not Reported Not Reported
08/13/2017 06:08 AM 48.74 40.64 24.44 84.20 48.74 38.0 Not Reported 0.00 NW 0.00 NW 1.34 NW No x No Precipitation 08/13/2017 06:06 AM 08/13/2017 06:08 AM x x x x x Not Reported Not Reported
08/13/2017 06:23 AM 48.38 40.28 24.44 84.20 48.38 38.0 Not Reported 0.00 NW 0.00 NW 0.22 NW No x No Precipitation 08/13/2017 06:16 AM 08/13/2017 06:23 AM x x x x x Not Reported Not Reported
08/13/2017 06:38 AM 48.56 40.46 24.80 84.20 48.38 39.0 Not Reported 0.00 N 0.00 N 0.22 N Yes x Unknown 08/13/2017 06:35 AM   x x x x x Not Reported Not Reported
08/13/2017 06:53 AM 48.92 40.64 25.16 84.20 48.38 39.0 Not Reported 0.00 NW 0.00 NW 0.89 NW Yes x Unknown 08/13/2017 06:47 AM   x x x x x Not Reported Not Reported
08/13/2017 07:09 AM 49.46 41.18 26.06 84.20 48.38 39.0 Not Reported 0.00 N 0.00 N 0.00 x Yes x Unknown 08/13/2017 06:47 AM 08/13/2017 07:09 AM x x x x x Not Reported Not Reported
08/13/2017 07:23 AM 50.36 41.90 26.78 84.20 48.38 39.0 Not Reported 0.00 S 0.00 S 1.79 S No x No Precipitation 08/13/2017 07:12 AM 08/13/2017 07:23 AM x x x x x Not Reported Not Reported
08/13/2017 07:38 AM 51.98 43.16 28.40 84.20 48.38 39.0 Not Reported 0.89 NE 0.00 S 1.34 N Yes x Unknown 08/13/2017 07:36 AM   x x x x x Not Reported Not Reported
08/13/2017 07:54 AM 54.86 45.32 30.20 84.20 48.38 38.0 Not Reported 0.00 SE 0.00 SE 1.57 SE Yes x Unknown 08/13/2017 07:36 AM   x x x x x Not Reported Not Reported
08/13/2017 08:09 AM 57.74 47.48 31.82 84.20 48.38 37.0 Not Reported 0.00 SE 0.00 SE 1.79 S Yes x Unknown 08/13/2017 07:36 AM   x x x x x Not Reported Not Reported
08/13/2017 08:23 AM 62.78 50.72 33.08 84.20 48.38 32.0 Not Reported 1.34 S 1.12 S 1.57 S Yes x Unknown 08/13/2017 07:36 AM   x x x x x Not Reported Not Reported
08/13/2017 08:39 AM 65.30 52.16 33.26 84.20 48.38 30.0 Not Reported 2.46 SE 2.46 SE 3.36 SE Yes x Unknown 08/13/2017 07:36 AM   x x x x x Not Reported Not Reported
08/13/2017 08:53 AM 67.46 53.24 32.18 84.20 48.38 26.0 Not Reported 1.12 E 0.00 SE 3.58 SE Yes x Unknown 08/13/2017 07:36 AM   x x x x x Not Reported Not Reported
08/13/2017 09:09 AM 69.44 54.50 32.18 84.20 48.38 24.0 Not Reported 1.57 S 1.79 S 2.46 S Yes x Unknown 08/13/2017 08:59 AM   x x x x x Not Reported Not Reported
08/13/2017 09:24 AM 71.78 55.76 31.82 84.20 48.38 22.0 Not Reported 2.24 SE 0.00 E 4.47 S Yes x Unknown 08/13/2017 08:59 AM   x x x x x Not Reported Not Reported
08/13/2017 09:39 AM 74.30 57.38 31.10 84.20 48.38 20.0 Not Reported 2.24 SE 2.46 SE 4.92 S Yes x Unknown 08/13/2017 08:59 AM   x x x x x Not Reported Not Reported
08/13/2017 09:55 AM 76.10 58.46 30.38 84.20 48.38 18.0 Not Reported 3.58 NW 2.24 SE 7.61 SE Yes x Unknown 08/13/2017 08:59 AM   x x x x x Not Reported Not Reported
08/13/2017 10:09 AM 76.82 58.82 29.48 84.20 48.38 17.0 Not Reported 3.36 SW 12.75 NW 11.41 NW Yes x Unknown 08/13/2017 08:59 AM   x x x x x Not Reported Not Reported
08/13/2017 10:23 AM 76.64 58.64 28.94 84.20 48.38 17.0 Not Reported 5.59 SW 4.47 W 9.40 S Yes x Unknown 08/13/2017 08:59 AM   x x x x x Not Reported Not Reported
08/13/2017 10:39 AM 77.54 59.36 29.66 84.20 48.38 17.0 Not Reported 2.46 SW 3.36 W 9.17 W Yes x Unknown 08/13/2017 08:59 AM   x x x x x Not Reported Not Reported
08/13/2017 10:54 AM 77.72 59.36 29.84 84.20 48.38 17.0 Not Reported 4.92 W 4.47 W 10.51 W Yes x Unknown 08/13/2017 08:59 AM   x x x x x Not Reported Not Reported
08/13/2017 11:09 AM 78.44 59.90 30.38 84.20 48.38 17.0 Not Reported 4.92 NW 7.38 W 11.86 W Yes x Unknown 08/13/2017 08:59 AM   x x x x x Not Reported Not Reported
08/13/2017 11:23 AM 78.98 60.08 30.20 84.20 48.38 16.0 Not Reported 6.04 SW 6.49 SW 15.43 NW Yes x Unknown 08/13/2017 08:59 AM   x x x x x Not Reported Not Reported
08/13/2017 11:39 AM 78.80 59.90 30.02 84.20 48.38 16.0 Not Reported 4.03 W 3.36 W 14.32 NW Yes x Unknown 08/13/2017 08:59 AM   x x x x x Not Reported Not Reported
08/13/2017 11:55 AM 78.98 59.90 30.20 84.20 48.38 16.0 Not Reported 5.37 S 8.95 S 13.87 NW Yes x Unknown 08/13/2017 08:59 AM   x x x x x Not Reported Not Reported
08/13/2017 12:08 PM 79.34 60.26 30.56 84.20 48.38 16.0 Not Reported 6.04 SW 9.40 SW 17.45 SW Yes x Unknown 08/13/2017 08:59 AM   x x x x x Not Reported Not Reported
08/13/2017 12:24 PM 79.70 60.62 29.84 84.20 48.38 16.0 Not Reported 7.16 SW 2.24 SE 13.20 W Yes x Unknown 08/13/2017 08:59 AM   x x x x x Not Reported Not Reported
08/13/2017 12:39 PM 80.96 61.16 30.20 84.20 48.38 15.0 Not Reported 4.47 W 2.91 SW 9.40 NW Yes x Unknown 08/13/2017 08:59 AM   x x x x x Not Reported Not Reported
08/13/2017 12:55 PM 80.24 60.80 29.12 84.20 48.38 15.0 Not Reported 6.26 S 15.21 SW 12.75 S Yes x Unknown 08/13/2017 12:42 PM   x x x x x Not Reported Not Reported
08/13/2017 01:08 PM 81.14 61.34 30.38 84.20 48.38 15.0 Not Reported 5.37 SW 3.80 NW 12.97 S Yes x Unknown 08/13/2017 12:42 PM   x x x x x Not Reported Not Reported
08/13/2017 01:24 PM 81.14 61.52 30.38 84.20 48.38 15.0 Not Reported 6.26 SW 5.37 NW 14.32 S Yes x Unknown 08/13/2017 12:42 PM   x x x x x Not Reported Not Reported
08/13/2017 01:38 PM 81.68 61.52 30.38 84.20 48.38 15.0 Not Reported 6.71 SW 1.57 S 14.09 S Yes x Unknown 08/13/2017 12:42 PM   x x x x x Not Reported Not Reported
08/13/2017 01:53 PM 81.50 61.70 30.74 84.20 48.38 15.0 Not Reported 3.58 W 0.22 NW 14.32 W Yes x Unknown 08/13/2017 12:42 PM   x x x x x Not Reported Not Reported
08/13/2017 02:08 PM 83.30 62.60 30.92 84.20 48.38 15.0 Not Reported 5.82 S 6.04 S 12.97 SW Yes x Unknown 08/13/2017 12:42 PM   x x x x x Not Reported Not Reported
08/13/2017 02:23 PM 82.40 62.24 30.20 84.20 48.38 15.0 Not Reported 4.03 S 11.63 NW 15.88 S Yes x Unknown 08/13/2017 12:42 PM   x x x x x Not Reported Not Reported
08/13/2017 02:38 PM 82.04 61.88 30.02 84.20 48.38 15.0 Not Reported 8.50 W 4.47 NW 15.66 SW Yes x Unknown 08/13/2017 12:42 PM   x x x x x Not Reported Not Reported
08/13/2017 02:54 PM 82.04 62.06 29.48 84.20 48.38 14.0 Not Reported 4.25 W 7.16 SW 15.43 NW Yes x Unknown 08/13/2017 02:51 PM   x x x x x Not Reported Not Reported
08/13/2017 03:10 PM 82.76 62.42 29.48 84.20 48.38 14.0 Not Reported 5.14 W 6.04 W 13.65 W Yes x Unknown 08/13/2017 02:51 PM   x x x x x Not Reported Not Reported
08/13/2017 03:23 PM 82.94 62.60 29.48 84.20 48.38 14.0 Not Reported 4.25 S 0.00 SW 13.65 W Yes x Unknown 08/13/2017 03:17 PM   x x x x x Not Reported Not Reported
08/13/2017 03:42 PM 82.94 62.60 28.94 83.30 48.38 14.0 Not Reported 5.82 NW 1.79 NW 14.09 S Yes x Unknown 08/13/2017 03:31 PM   x x x x x Not Reported Not Reported
08/13/2017 03:54 PM 83.30 62.78 29.12 83.30 48.38 13.0 Not Reported 5.37 S 4.92 S 12.75 NW Yes x Unknown 08/13/2017 03:31 PM   x x x x x Not Reported Not Reported
08/13/2017 04:08 PM 82.40 62.42 28.04 84.20 48.38 13.0 Not Reported 6.04 SE 3.36 NW 12.75 SW Yes x Unknown 08/13/2017 04:08 PM   x x x x x Not Reported Not Reported
08/13/2017 04:23 PM 82.22 62.42 27.14 84.20 48.38 13.0 Not Reported 8.28 S 5.59 SW 20.13 S Yes x Unknown 08/13/2017 04:17 PM   x x x x x Not Reported Not Reported
08/13/2017 04:38 PM 82.04 62.06 27.68 84.20 48.38 13.0 Not Reported 8.50 W 9.62 W 14.09 W No x No Precipitation 08/13/2017 04:28 PM 08/13/2017 04:37 PM x x x x x Not Reported Not Reported
08/13/2017 04:57 PM 82.40 62.60 27.86 84.20 48.38 13.0 Not Reported 3.13 SE 9.62 SW 12.75 W Yes x Unknown 08/13/2017 04:55 PM   x x x x x Not Reported Not Reported
08/13/2017 05:09 PM 81.50 61.88 26.60 84.20 48.38 13.0 Not Reported 6.49 SE 7.38 S 14.76 SE Yes x Unknown 08/13/2017 04:55 PM   x x x x x Not Reported Not Reported
08/13/2017 05:23 PM 81.68 62.06 26.06 84.20 48.38 12.0 Not Reported 4.92 S 8.50 SW 14.76 SW Yes x Unknown 08/13/2017 04:55 PM   x x x x x Not Reported Not Reported
08/13/2017 05:39 PM 80.24 61.34 24.26 84.20 48.38 12.0 Not Reported 6.71 S 2.01 SW 14.99 S Yes x Unknown 08/13/2017 04:55 PM   x x x x x Not Reported Not Reported
08/13/2017 05:53 PM 79.88 60.98 24.80 84.20 48.38 13.0 Not Reported 4.70 S 4.92 S 12.97 SW Yes x Unknown 08/13/2017 04:55 PM   x x x x x Not Reported Not Reported
08/13/2017 06:09 PM 79.70 60.98 24.98 84.20 48.38 13.0 Not Reported 6.26 SW 8.28 E 12.53 SW Yes x Unknown 08/13/2017 06:08 PM   x x x x x Not Reported Not Reported
08/13/2017 06:23 PM 80.06 61.16 25.34 84.20 48.38 13.0 Not Reported 5.59 NW 9.40 SW 13.87 SE No x No Precipitation 08/13/2017 06:20 PM 08/13/2017 06:22 PM x x x x x Not Reported Not Reported
08/13/2017 06:39 PM 77.90 59.90 23.54 84.20 48.38 13.0 Not Reported 4.70 S 5.37 SW 17.22 SW Yes x Unknown 08/13/2017 06:38 PM   x x x x x Not Reported Not Reported
08/13/2017 06:53 PM 75.92 58.64 22.82 84.20 48.38 13.0 Not Reported 6.04 SW 5.59 S 10.74 SW No x No Precipitation 08/13/2017 06:43 PM 08/13/2017 06:45 PM x x x x x Not Reported Not Reported
08/13/2017 07:09 PM 74.84 57.92 23.18 84.20 48.38 14.0 Not Reported 5.82 SE 4.92 SW 12.53 S Yes x Unknown 08/13/2017 07:07 PM   x x x x x Not Reported Not Reported
08/13/2017 07:23 PM 73.94 57.38 23.00 84.20 48.38 14.0 Not Reported 2.46 SW 2.46 W 6.04 W No x No Precipitation 08/13/2017 07:14 PM 08/13/2017 07:15 PM x x x x x Not Reported Not Reported
08/13/2017 07:38 PM 73.04 56.66 22.82 84.20 48.38 15.0 Not Reported 3.36 W 1.34 W 8.28 SW No x No Precipitation 08/13/2017 07:30 PM 08/13/2017 07:31 PM x x x x x Not Reported Not Reported
08/13/2017 07:53 PM 72.14 56.12 22.64 84.20 48.38 15.0 Not Reported 4.25 W 2.68 W 7.83 NW No x No Precipitation 08/13/2017 07:30 PM 08/13/2017 07:31 PM x x x x x Not Reported Not Reported
08/13/2017 08:08 PM 71.24 55.40 22.82 84.20 48.38 16.0 Not Reported 3.13 W 2.24 NW 6.04 W No x No Precipitation 08/13/2017 07:30 PM 08/13/2017 07:31 PM x x x x x Not Reported Not Reported
08/13/2017 08:23 PM 69.80 54.50 23.18 84.20 48.38 17.0 Not Reported 2.24 W 4.70 W 6.49 W No x No Precipitation 08/13/2017 07:30 PM 08/13/2017 07:31 PM x x x x x Not Reported Not Reported
08/13/2017 08:38 PM 68.90 53.96 23.18 84.20 48.38 17.0 Not Reported 1.57 SW 0.00 NW 4.47 W No x No Precipitation 08/13/2017 07:30 PM 08/13/2017 07:31 PM x x x x x Not Reported Not Reported
08/13/2017 08:53 PM 68.18 53.42 23.72 84.20 48.38 18.0 Not Reported 1.79 NW 1.57 NW 5.14 W No x No Precipitation 08/13/2017 07:30 PM 08/13/2017 07:31 PM x x x x x Not Reported Not Reported
08/13/2017 09:08 PM 67.10 52.70 23.90 84.20 48.38 19.0 Not Reported 2.68 W 1.12 SW 6.93 W No x No Precipitation 08/13/2017 07:30 PM 08/13/2017 07:31 PM x x x x x Not Reported Not Reported
08/13/2017 09:24 PM 65.84 51.80 23.72 84.20 48.38 20.0 Not Reported 1.79 NW 2.68 NW 3.80 NW No x No Precipitation 08/13/2017 07:30 PM 08/13/2017 07:31 PM x x x x x Not Reported Not Reported
08/13/2017 09:40 PM 64.58 51.08 23.90 84.20 48.38 21.0 Not Reported 2.46 W 1.79 W 4.47 NW No x No Precipitation 08/13/2017 07:30 PM 08/13/2017 07:31 PM x x x x x Not Reported Not Reported
08/13/2017 09:54 PM 63.86 50.54 24.08 84.20 48.38 21.0 Not Reported 2.68 W 4.92 NW 5.37 W No x No Precipitation 08/13/2017 07:30 PM 08/13/2017 07:31 PM x x x x x Not Reported Not Reported
08/13/2017 10:08 PM 62.78 49.82 24.26 84.20 48.38 22.0 Not Reported 1.12 NW 0.67 NW 3.80 W No x No Precipitation 08/13/2017 09:55 PM 08/13/2017 09:56 PM x x x x x Not Reported Not Reported
08/13/2017 10:23 PM 61.52 49.10 24.08 84.20 48.38 23.0 Not Reported 1.57 NW 2.46 NW 3.13 NW No x No Precipitation 08/13/2017 09:55 PM 08/13/2017 09:56 PM x x x x x Not Reported Not Reported
08/13/2017 10:38 PM 60.62 48.38 24.26 84.20 48.38 24.0 Not Reported 1.12 SW 0.22 SW 2.91 NW No x No Precipitation 08/13/2017 09:55 PM 08/13/2017 09:56 PM x x x x x Not Reported Not Reported
08/13/2017 10:54 PM 60.80 48.56 24.80 84.20 48.38 24.0 Not Reported 2.01 W 1.79 W 2.68 W No x No Precipitation 08/13/2017 09:55 PM 08/13/2017 09:56 PM x x x x x Not Reported Not Reported
08/13/2017 11:08 PM 60.80 48.56 24.80 84.20 48.38 25.0 Not Reported 2.01 SW 3.58 SW 6.49 SW No x No Precipitation 08/13/2017 09:55 PM 08/13/2017 09:56 PM x x x x x Not Reported Not Reported
08/13/2017 11:23 PM 60.44 48.38 25.34 84.20 48.38 25.0 Not Reported 2.68 SW 0.45 SW 4.70 S No x No Precipitation 08/13/2017 09:55 PM 08/13/2017 09:56 PM x x x x x Not Reported Not Reported
08/13/2017 11:38 PM 62.06 49.64 27.14 84.20 48.38 26.0 Not Reported 3.13 SW 2.24 W 7.38 S No x No Precipitation 08/13/2017 11:32 PM 08/13/2017 11:33 PM x x x x x Not Reported Not Reported